createdAt,value
2023-04-06T00:01:52.743Z,4.57
2023-04-06T00:04:19.237Z,4.55
2023-04-06T00:06:45.627Z,4.57
2023-04-06T00:09:11.990Z,4.53
2023-04-06T00:11:38.429Z,4.35
2023-04-06T00:14:05.230Z,3.97
2023-04-06T00:16:31.724Z,4.40
2023-04-06T00:18:58.174Z,4.65
2023-04-06T00:21:24.855Z,4.95
2023-04-06T00:23:51.547Z,4.05
2023-04-06T00:26:18.011Z,4.20
2023-04-06T00:28:44.383Z,4.32
2023-04-06T00:31:10.835Z,4.05
2023-04-06T00:33:37.320Z,4.68
2023-04-06T00:36:04.109Z,4.45
2023-04-06T00:38:30.566Z,4.22
2023-04-06T00:40:57.022Z,4.00
2023-04-06T00:43:23.495Z,4.40
2023-04-06T00:45:50.170Z,4.38
2023-04-06T00:48:17.602Z,3.72
2023-04-06T00:50:44.153Z,3.90
2023-04-06T00:53:10.652Z,4.45
2023-04-06T00:55:37.141Z,3.90
2023-04-06T00:58:04.785Z,3.95
2023-04-06T01:00:31.507Z,3.67
2023-04-06T01:02:58.012Z,4.72
2023-04-06T01:05:24.502Z,4.38
2023-04-06T01:07:50.909Z,4.30
2023-04-06T01:10:27.655Z,4.53
2023-04-06T01:12:54.046Z,4.40
2023-04-06T01:15:21.897Z,4.32
2023-04-06T01:17:48.297Z,4.93
2023-04-06T01:20:15.284Z,4.53
2023-04-06T01:22:41.739Z,4.22
2023-04-06T01:25:09.082Z,4.30
2023-04-06T01:27:35.533Z,4.72
2023-04-06T01:30:02.048Z,4.70
2023-04-06T01:32:28.473Z,4.35
2023-04-06T01:34:55.758Z,5.18
2023-04-06T01:37:22.203Z,4.93
2023-04-06T01:39:48.693Z,4.22
2023-04-06T01:42:15.059Z,4.63
2023-04-06T01:44:41.577Z,4.05
2023-04-06T01:47:07.942Z,4.47
2023-04-06T01:49:34.754Z,5.25
2023-04-06T01:52:01.109Z,5.05
2023-04-06T01:54:27.566Z,4.28
2023-04-06T01:56:53.986Z,4.03
2023-04-06T01:59:20.393Z,3.92
2023-04-06T02:01:46.868Z,4.55
2023-04-06T02:04:14.512Z,4.45
2023-04-06T02:06:41.185Z,3.60
2023-04-06T02:09:07.998Z,4.72
2023-04-06T02:11:34.661Z,4.53
2023-04-06T02:14:01.905Z,4.55
2023-04-06T02:16:28.406Z,4.80
2023-04-06T02:18:54.837Z,4.82
2023-04-06T02:21:21.413Z,4.47
2023-04-06T02:23:48.436Z,4.38
2023-04-06T02:26:14.918Z,4.53
2023-04-06T02:28:41.483Z,5.38
2023-04-06T02:31:08.779Z,4.43
2023-04-06T02:33:35.202Z,5.00
2023-04-06T02:36:01.638Z,4.40
2023-04-06T02:38:28.008Z,4.70
2023-04-06T02:40:54.366Z,4.57
2023-04-06T02:43:20.790Z,4.15
2023-04-06T02:45:47.228Z,5.03
2023-04-06T02:48:13.670Z,4.95
2023-04-06T02:50:40.376Z,4.82
2023-04-06T02:53:07.286Z,4.68
2023-04-06T02:55:33.842Z,4.45
2023-04-06T02:58:00.464Z,4.90
2023-04-06T03:00:27.221Z,4.55
2023-04-06T03:02:53.714Z,4.57
2023-04-06T03:05:20.202Z,4.57
2023-04-06T03:07:46.578Z,4.53
2023-04-06T03:10:12.993Z,4.55
2023-04-06T03:12:39.351Z,5.00
2023-04-06T03:15:06.103Z,4.63
2023-04-06T03:17:32.524Z,4.90
2023-04-06T03:19:58.900Z,5.70
2023-04-06T03:22:25.555Z,4.47
2023-04-06T03:24:51.892Z,4.68
2023-04-06T03:27:18.278Z,4.88
2023-04-06T03:29:44.653Z,4.57
2023-04-06T03:32:11.354Z,4.10
2023-04-06T03:34:38.561Z,4.82
2023-04-06T03:37:10.422Z,5.25
2023-04-06T03:39:37.636Z,4.30
2023-04-06T03:42:04.233Z,5.38
2023-04-06T03:44:30.712Z,5.05
2023-04-06T03:46:57.161Z,4.93
2023-04-06T03:49:23.649Z,4.55
2023-04-06T03:51:50.261Z,5.43
2023-04-06T03:54:16.681Z,5.15
2023-04-06T03:56:43.168Z,5.00
2023-04-06T03:59:09.978Z,5.30
2023-04-06T04:01:36.784Z,5.40
2023-04-06T04:04:03.357Z,4.50
2023-04-06T04:06:29.785Z,5.03
2023-04-06T04:08:56.172Z,5.30
2023-04-06T04:11:22.606Z,5.88
2023-04-06T04:13:48.962Z,5.95
2023-04-06T04:16:15.357Z,5.63
2023-04-06T04:18:44.387Z,5.35
2023-04-06T04:21:10.907Z,5.20
2023-04-06T04:23:37.579Z,5.45
2023-04-06T04:26:04.145Z,5.20
2023-04-06T04:28:30.853Z,5.30
2023-04-06T04:30:57.309Z,5.25
2023-04-06T04:33:23.892Z,5.63
2023-04-06T04:35:50.432Z,5.05
2023-04-06T04:38:16.883Z,5.30
2023-04-06T04:40:43.282Z,12.75
2023-04-06T04:43:09.756Z,5.20
2023-04-06T04:45:36.357Z,5.80
2023-04-06T04:48:03.005Z,5.70
2023-04-06T04:50:29.501Z,6.07
2023-04-06T04:52:55.954Z,5.10
2023-04-06T04:55:22.397Z,6.10
2023-04-06T04:57:48.877Z,5.18
2023-04-06T05:00:15.845Z,6.07
2023-04-06T05:02:42.424Z,5.35
2023-04-06T05:05:09.515Z,5.32
2023-04-06T05:07:35.967Z,6.35
2023-04-06T05:10:02.420Z,5.47
2023-04-06T05:12:28.906Z,6.10
2023-04-06T05:14:55.677Z,6.03
2023-04-06T05:17:22.183Z,5.45
2023-04-06T05:19:48.683Z,5.55
2023-04-06T05:22:17.109Z,5.75
2023-04-06T05:24:43.721Z,4.55
2023-04-06T05:27:10.713Z,6.32
2023-04-06T05:29:37.213Z,5.47
2023-04-06T05:32:03.728Z,6.47
2023-04-06T05:34:30.260Z,6.22
2023-04-06T05:36:56.850Z,6.65
2023-04-06T05:39:23.325Z,5.95
2023-04-06T05:41:50.482Z,5.20
2023-04-06T05:44:17.075Z,6.80
2023-04-06T05:46:43.591Z,6.65
2023-04-06T05:49:10.167Z,5.97
2023-04-06T05:51:36.739Z,5.82
2023-04-06T05:54:03.342Z,6.60
2023-04-06T05:56:31.160Z,6.32
2023-04-06T05:58:57.607Z,6.53
2023-04-06T06:01:24.044Z,6.55
2023-04-06T06:03:50.503Z,5.13
2023-04-06T06:06:16.896Z,5.93
2023-04-06T06:08:43.318Z,6.40
2023-04-06T06:11:09.876Z,5.15
2023-04-06T06:13:36.260Z,5.55
2023-04-06T06:16:06.054Z,7.03
2023-04-06T06:18:33.221Z,6.90
2023-04-06T06:20:59.781Z,5.57
2023-04-06T06:23:26.312Z,6.32
2023-04-06T06:25:52.779Z,7.68
2023-04-06T06:28:19.294Z,6.57
2023-04-06T06:30:45.730Z,6.55
2023-04-06T06:33:12.120Z,5.05
2023-04-06T06:35:38.496Z,6.70
2023-04-06T06:38:04.948Z,6.82
2023-04-06T06:40:31.421Z,7.38
2023-04-06T06:42:57.915Z,7.53
2023-04-06T06:45:26.310Z,6.55
2023-04-06T06:47:55.155Z,6.28
2023-04-06T06:50:22.202Z,7.78
2023-04-06T06:52:48.644Z,7.82
2023-04-06T06:55:16.224Z,7.13
2023-04-06T06:57:43.379Z,7.85
2023-04-06T07:00:13.144Z,7.15
2023-04-06T07:02:40.910Z,7.95
2023-04-06T07:05:26.172Z,7.55
2023-04-06T07:07:54.491Z,7.30
2023-04-06T07:10:21.293Z,7.07
2023-04-06T07:12:47.756Z,7.72
2023-04-06T07:15:14.373Z,7.68
2023-04-06T07:17:42.435Z,7.07
2023-04-06T07:20:09.466Z,7.72
2023-04-06T07:22:35.884Z,7.50
2023-04-06T07:25:02.283Z,7.88
2023-04-06T07:27:28.661Z,7.90
2023-04-06T07:29:55.212Z,8.57
2023-04-06T07:32:21.577Z,7.88
2023-04-06T07:34:48.019Z,9.15
2023-04-06T07:37:14.411Z,8.05
2023-04-06T07:39:41.260Z,7.40
2023-04-06T07:42:07.829Z,8.95
2023-04-06T07:44:34.200Z,8.20
2023-04-06T07:47:01.150Z,8.07
2023-04-06T07:49:27.750Z,9.18
2023-04-06T07:51:54.820Z,6.80
2023-04-06T07:54:21.660Z,8.63
2023-04-06T07:56:48.041Z,7.35
2023-04-06T07:59:14.676Z,7.47
2023-04-06T08:01:41.213Z,8.10
2023-04-06T08:04:08.111Z,8.57
2023-04-06T08:06:35.810Z,8.65
2023-04-06T08:09:02.163Z,7.22
2023-04-06T08:11:28.677Z,8.43
2023-04-06T08:13:57.734Z,9.07
2023-04-06T08:16:25.000Z,8.15
2023-04-06T08:18:51.473Z,8.95
2023-04-06T08:21:17.870Z,9.10
2023-04-06T08:23:44.358Z,7.85
2023-04-06T08:26:10.863Z,9.05
2023-04-06T08:28:37.430Z,8.02
2023-04-06T08:31:07.762Z,9.00
2023-04-06T08:33:39.935Z,7.93
2023-04-06T08:36:13.876Z,9.80
2023-04-06T08:38:40.941Z,9.13
2023-04-06T08:41:14.809Z,8.63
2023-04-06T08:43:49.873Z,9.40
2023-04-06T08:46:16.539Z,7.65
2023-04-06T08:48:44.289Z,8.65
2023-04-06T08:51:11.058Z,9.00
2023-04-06T08:53:38.503Z,9.50
2023-04-06T08:56:06.002Z,8.77
2023-04-06T08:58:38.801Z,8.85
2023-04-06T09:01:12.433Z,8.70
2023-04-06T09:03:41.067Z,7.97
2023-04-06T09:06:08.898Z,9.38
2023-04-06T09:08:36.228Z,8.13
2023-04-06T09:11:04.064Z,8.82
2023-04-06T09:13:30.921Z,9.10
2023-04-06T09:16:05.021Z,8.20
2023-04-06T09:18:35.136Z,6.97
2023-04-06T09:21:03.832Z,8.77
2023-04-06T09:23:30.597Z,8.00
2023-04-06T09:26:16.455Z,8.63
2023-04-06T09:28:47.345Z,7.90
2023-04-06T09:31:15.736Z,7.95
2023-04-06T09:33:46.173Z,8.73
2023-04-06T09:36:13.155Z,6.83
2023-04-06T09:38:55.764Z,7.93
2023-04-06T09:41:27.046Z,8.65
2023-04-06T09:44:03.578Z,7.82
2023-04-06T09:46:43.001Z,8.95
2023-04-06T09:49:19.305Z,8.27
2023-04-06T09:51:50.452Z,9.25
2023-04-06T09:56:53.399Z,8.48
2023-04-06T09:59:31.586Z,8.52
2023-04-06T10:02:00.682Z,8.77
2023-04-06T10:04:44.080Z,8.65
2023-04-06T10:07:12.817Z,7.72
2023-04-06T10:09:39.447Z,8.15
2023-04-06T10:12:06.698Z,7.65
2023-04-06T10:14:37.878Z,9.80
2023-04-06T10:19:56.459Z,9.80
2023-04-06T10:22:35.003Z,8.07
2023-04-06T10:25:01.464Z,9.55
2023-04-06T10:27:31.634Z,7.25
2023-04-06T10:30:06.441Z,8.07
2023-04-06T10:32:37.352Z,8.60
2023-04-06T10:35:10.691Z,7.65
2023-04-06T10:38:03.129Z,8.65
2023-04-06T10:40:29.596Z,9.07
2023-04-06T10:43:07.336Z,8.23
2023-04-06T10:45:34.205Z,8.02
2023-04-06T10:48:00.837Z,8.27
2023-04-06T10:50:30.434Z,8.52
2023-04-06T10:53:03.861Z,8.13
2023-04-06T10:55:30.539Z,9.05
2023-04-06T10:57:56.997Z,7.97
2023-04-06T11:00:23.795Z,9.00
2023-04-06T11:02:50.398Z,7.60
2023-04-06T11:05:17.033Z,6.95
2023-04-06T11:07:43.466Z,7.95
2023-04-06T11:10:16.584Z,8.45
2023-04-06T11:12:44.072Z,7.07
2023-04-06T11:15:10.771Z,7.47
2023-04-06T11:17:37.971Z,7.20
2023-04-06T11:20:05.725Z,3.90
2023-04-06T11:22:32.338Z,6.60
2023-04-06T11:27:37.097Z,5.95
2023-04-06T11:30:04.008Z,6.00
2023-04-06T11:32:30.533Z,6.18
2023-04-06T11:34:58.879Z,6.80
2023-04-06T11:37:28.513Z,5.90
2023-04-06T11:39:57.877Z,5.70
2023-04-06T11:42:30.984Z,7.50
2023-04-06T11:44:58.727Z,6.55
2023-04-06T11:47:34.232Z,6.38
2023-04-06T11:50:14.906Z,7.05
2023-04-06T11:52:42.467Z,6.30
2023-04-06T11:55:16.596Z,7.15
2023-04-06T11:57:43.615Z,4.80
2023-04-06T12:00:11.028Z,6.70
2023-04-06T12:02:38.368Z,6.60
2023-04-06T12:05:06.159Z,5.55
2023-04-06T12:07:33.418Z,5.90
2023-04-06T12:10:01.821Z,6.97
2023-04-06T12:12:28.163Z,7.70
2023-04-06T12:14:54.484Z,7.22
2023-04-06T12:17:21.312Z,5.40
2023-04-06T12:19:47.832Z,5.72
2023-04-06T12:22:15.265Z,4.53
2023-04-06T12:24:41.646Z,6.13
2023-04-06T12:27:10.893Z,6.13
2023-04-06T12:29:37.937Z,5.15
2023-04-06T12:32:04.446Z,4.60
2023-04-06T12:34:31.054Z,4.70
2023-04-06T12:36:57.935Z,5.10
2023-04-06T12:39:24.754Z,4.45
2023-04-06T12:41:51.280Z,4.43
2023-04-06T12:44:17.686Z,4.72
2023-04-06T12:46:44.191Z,5.68
2023-04-06T12:49:10.947Z,4.10
2023-04-06T12:51:37.334Z,4.30
2023-04-06T12:54:03.821Z,4.32
2023-04-06T12:56:30.654Z,4.25
2023-04-06T12:58:57.248Z,3.15
2023-04-06T13:01:23.825Z,3.88
2023-04-06T13:03:50.710Z,4.47
2023-04-06T13:06:17.064Z,3.10
2023-04-06T13:08:44.139Z,3.58
2023-04-06T13:11:11.096Z,4.05
2023-04-06T13:13:38.405Z,4.22
2023-04-06T13:16:08.200Z,3.97
2023-04-06T13:18:35.626Z,4.10
2023-04-06T13:21:02.048Z,3.55
2023-04-06T13:23:28.491Z,4.38
2023-04-06T13:26:06.316Z,3.97
2023-04-06T13:28:34.375Z,4.40
2023-04-06T13:31:02.419Z,3.53
2023-04-06T13:33:29.858Z,3.78
2023-04-06T13:35:56.675Z,4.15
2023-04-06T13:38:24.977Z,4.30
2023-04-06T13:40:51.766Z,4.32
2023-04-06T13:43:20.386Z,3.97
2023-04-06T13:45:55.907Z,4.22
2023-04-06T13:48:22.553Z,4.35
2023-04-06T13:50:49.237Z,4.60
2023-04-06T13:53:15.882Z,4.93
2023-04-06T13:55:42.318Z,4.43
2023-04-06T13:58:08.931Z,4.43
2023-04-06T14:00:36.565Z,4.82
2023-04-06T14:03:03.223Z,4.45
2023-04-06T14:05:33.648Z,4.68
2023-04-06T14:08:00.259Z,4.60
2023-04-06T14:10:28.340Z,4.45
2023-04-06T14:12:55.046Z,3.85
2023-04-06T14:15:22.803Z,5.00
2023-04-06T14:17:49.596Z,4.35
2023-04-06T14:20:16.203Z,3.90
2023-04-06T14:22:43.669Z,4.55
2023-04-06T14:25:12.087Z,5.00
2023-04-06T14:27:38.677Z,4.93
2023-04-06T14:30:05.478Z,5.15
2023-04-06T14:32:31.910Z,5.20
2023-04-06T14:34:58.379Z,5.25
2023-04-06T14:37:24.750Z,5.53
2023-04-06T14:39:51.268Z,5.95
2023-04-06T14:42:17.596Z,5.30
2023-04-06T14:44:46.042Z,6.13
2023-04-06T14:47:12.734Z,5.22
2023-04-06T14:49:39.122Z,6.20
2023-04-06T14:52:05.568Z,5.30
2023-04-06T14:54:31.948Z,5.25
2023-04-06T14:56:58.284Z,5.40
2023-04-06T14:59:24.699Z,4.75
2023-04-06T15:01:52.194Z,5.47
2023-04-06T15:04:18.810Z,5.57
2023-04-06T15:06:45.252Z,5.90
2023-04-06T15:09:11.565Z,5.85
2023-04-06T15:11:38.604Z,5.55
2023-04-06T15:14:05.179Z,5.68
2023-04-06T15:16:33.300Z,5.28
2023-04-06T15:19:01.196Z,5.32
2023-04-06T15:21:27.892Z,5.53
2023-04-06T15:23:55.041Z,6.03
2023-04-06T15:26:22.059Z,6.20
2023-04-06T15:28:48.460Z,5.82
2023-04-06T15:33:48.691Z,5.65
2023-04-06T15:36:27.111Z,5.05
2023-04-06T15:38:53.707Z,6.05
2023-04-06T15:41:20.895Z,5.93
2023-04-06T15:43:47.522Z,6.35
2023-04-06T15:46:14.052Z,5.13
2023-04-06T15:48:41.717Z,6.05
2023-04-06T15:51:08.286Z,5.78
2023-04-06T15:53:35.767Z,6.28
2023-04-06T15:56:05.283Z,5.65
2023-04-06T15:58:33.352Z,4.32
2023-04-06T16:00:59.709Z,5.53
2023-04-06T16:03:26.289Z,6.40
2023-04-06T16:06:04.648Z,3.95
2023-04-06T16:08:34.683Z,4.88
2023-04-06T16:11:01.592Z,4.80
2023-04-06T16:13:28.080Z,5.80
2023-04-06T16:15:54.455Z,6.78
2023-04-06T16:18:20.973Z,6.43
2023-04-06T16:20:47.416Z,6.10
2023-04-06T16:23:13.777Z,4.95
2023-04-06T16:25:40.264Z,5.97
2023-04-06T16:28:07.138Z,5.13
2023-04-06T16:30:37.529Z,9.25
2023-04-06T16:33:03.992Z,6.20
2023-04-06T16:35:30.488Z,3.90
2023-04-06T16:37:56.845Z,5.60
2023-04-06T16:40:23.235Z,6.47
2023-04-06T16:42:49.661Z,6.32
2023-04-06T16:45:16.599Z,6.90
2023-04-06T16:47:43.245Z,5.32
2023-04-06T16:50:10.584Z,5.28
2023-04-06T16:52:37.161Z,6.53
2023-04-06T16:55:03.805Z,6.63
2023-04-06T16:57:30.254Z,6.57
2023-04-06T16:59:56.658Z,6.28
2023-04-06T17:02:26.370Z,6.43
2023-04-06T17:04:52.949Z,5.97
2023-04-06T17:07:21.604Z,6.43
2023-04-06T17:09:49.055Z,6.97
2023-04-06T17:12:15.464Z,4.70
2023-04-06T17:14:41.879Z,6.57
2023-04-06T17:17:08.433Z,6.85
2023-04-06T17:19:34.954Z,5.22
2023-04-06T17:22:01.371Z,6.28
2023-04-06T17:24:27.842Z,5.47
2023-04-06T17:26:54.298Z,6.10
2023-04-06T17:29:20.640Z,4.82
2023-04-06T17:31:47.005Z,6.68
2023-04-06T17:34:13.400Z,7.90
2023-04-06T17:36:39.879Z,6.30
2023-04-06T17:39:06.508Z,4.68
2023-04-06T17:41:34.322Z,4.22
2023-04-06T17:44:01.179Z,6.70
2023-04-06T17:46:27.637Z,6.38
2023-04-06T17:48:54.075Z,6.43
2023-04-06T17:51:21.325Z,6.15
2023-04-06T17:53:48.198Z,6.00
2023-04-06T17:56:14.882Z,6.63
2023-04-06T17:58:41.327Z,6.88
2023-04-06T18:01:09.116Z,6.88
2023-04-06T18:03:35.822Z,7.47
2023-04-06T18:06:16.385Z,5.60
2023-04-06T18:08:43.115Z,4.07
2023-04-06T18:11:21.475Z,6.57
2023-04-06T18:13:48.096Z,5.88
2023-04-06T18:16:16.193Z,6.10
2023-04-06T18:18:42.907Z,6.80
2023-04-06T18:21:09.331Z,5.10
2023-04-06T18:23:37.202Z,7.10
2023-04-06T18:26:04.956Z,6.68
2023-04-06T18:28:31.622Z,7.22
2023-04-06T18:30:59.564Z,5.28
2023-04-06T18:33:29.775Z,5.28
2023-04-06T18:35:59.851Z,5.85
2023-04-06T18:38:26.245Z,5.32
2023-04-06T18:40:52.964Z,4.25
2023-04-06T18:43:19.273Z,7.00
2023-04-06T18:45:45.896Z,6.30
2023-04-06T18:48:13.552Z,6.05
2023-04-06T18:50:40.305Z,5.43
2023-04-06T18:53:06.783Z,4.57
2023-04-06T18:55:33.493Z,3.88
2023-04-06T18:58:00.439Z,4.22
2023-04-06T19:00:27.016Z,4.63
2023-04-06T19:02:53.641Z,6.97
2023-04-06T19:05:22.009Z,7.18
2023-04-06T19:07:52.042Z,7.63
2023-04-06T19:10:19.091Z,7.25
2023-04-06T19:12:45.931Z,5.63
2023-04-06T19:15:12.454Z,7.10
2023-04-06T19:17:39.247Z,7.30
2023-04-06T19:20:06.510Z,7.18
2023-04-06T19:22:38.848Z,8.05
2023-04-06T19:25:06.400Z,7.60
2023-04-06T19:27:32.742Z,6.10
2023-04-06T19:30:00.207Z,7.10
2023-04-06T19:32:26.998Z,7.55
2023-04-06T19:34:53.679Z,6.72
2023-04-06T19:37:20.149Z,7.30
2023-04-06T19:39:47.595Z,8.32
2023-04-06T19:42:15.505Z,8.43
2023-04-06T19:44:42.000Z,7.53
2023-04-06T19:47:08.340Z,7.53
2023-04-06T19:49:34.712Z,8.05
2023-04-06T19:52:01.053Z,7.57
2023-04-06T19:54:27.587Z,7.80
2023-04-06T19:56:54.013Z,7.45
2023-04-06T19:59:21.285Z,6.88
2023-04-06T20:01:47.719Z,6.68
2023-04-06T20:04:14.290Z,7.60
2023-04-06T20:06:40.964Z,6.85
2023-04-06T20:09:07.449Z,8.05
2023-04-06T20:11:35.858Z,7.70
2023-04-06T20:14:02.300Z,4.75
2023-04-06T20:16:28.764Z,7.45
2023-04-06T20:18:55.289Z,4.70
2023-04-06T20:21:21.806Z,7.03
2023-04-06T20:23:48.396Z,7.13
2023-04-06T20:26:14.745Z,7.32
2023-04-06T20:28:41.259Z,5.97
2023-04-06T20:31:07.970Z,6.93
2023-04-06T20:33:35.400Z,3.20
2023-04-06T20:36:02.180Z,5.82
2023-04-06T20:40:59.759Z,7.00
2023-04-06T20:43:28.557Z,6.30
2023-04-06T20:45:59.550Z,6.60
2023-04-06T20:48:26.077Z,6.53
2023-04-06T20:50:52.997Z,6.88
2023-04-06T20:53:20.724Z,6.50
2023-04-06T20:55:47.446Z,6.60
2023-04-06T20:58:15.993Z,6.68
2023-04-06T21:00:42.479Z,6.80
2023-04-06T21:03:09.180Z,6.80
2023-04-06T21:05:35.994Z,6.20
2023-04-06T21:08:02.507Z,7.60
2023-04-06T21:10:28.849Z,7.07
2023-04-06T21:12:55.233Z,7.55
2023-04-06T21:15:22.549Z,7.00
2023-04-06T21:17:48.966Z,6.85
2023-04-06T21:20:15.608Z,7.65
2023-04-06T21:22:42.016Z,7.35
2023-04-06T21:25:08.866Z,7.13
2023-04-06T21:27:35.531Z,7.40
2023-04-06T21:30:02.004Z,7.40
2023-04-06T21:32:28.526Z,8.68
2023-04-06T21:34:54.930Z,8.05
2023-04-06T21:37:21.413Z,7.38
2023-04-06T21:39:48.009Z,5.60
2023-04-06T21:42:14.528Z,7.78
2023-04-06T21:44:41.012Z,7.72
2023-04-06T21:47:07.449Z,7.88
2023-04-06T21:49:34.009Z,7.80
2023-04-06T21:52:00.507Z,7.93
2023-04-06T21:54:32.646Z,6.90
2023-04-06T21:56:59.034Z,8.15
2023-04-06T21:59:29.091Z,8.95
2023-04-06T22:01:56.912Z,9.02
2023-04-06T22:04:24.099Z,9.60
2023-04-06T22:06:50.830Z,8.45
2023-04-06T22:09:17.372Z,9.13
2023-04-06T22:11:43.723Z,9.13
2023-04-06T22:14:10.573Z,9.20
2023-04-06T22:16:37.060Z,9.57
2023-04-06T22:19:03.493Z,9.13
2023-04-06T22:21:30.660Z,10.25
2023-04-06T22:23:57.140Z,9.90
2023-04-06T22:26:23.591Z,9.50
2023-04-06T22:28:49.891Z,10.05
2023-04-06T22:31:16.258Z,10.10
2023-04-06T22:33:42.580Z,10.10
2023-04-06T22:36:09.491Z,10.55
2023-04-06T22:38:35.819Z,10.52
2023-04-06T22:41:02.176Z,10.48
2023-04-06T22:43:28.513Z,11.13
2023-04-06T22:45:54.875Z,11.45
2023-04-06T22:48:21.363Z,10.75
2023-04-06T22:50:47.753Z,11.25
2023-04-06T22:53:14.055Z,10.70
2023-04-06T22:55:43.450Z,10.80
2023-04-06T22:58:09.786Z,11.23
2023-04-06T23:00:36.152Z,12.00
2023-04-06T23:03:02.743Z,12.88
2023-04-06T23:05:29.157Z,11.77
2023-04-06T23:07:55.539Z,12.15
2023-04-06T23:10:21.859Z,12.55
2023-04-06T23:12:48.333Z,12.52
2023-04-06T23:15:14.764Z,12.93
2023-04-06T23:17:41.240Z,11.85
2023-04-06T23:20:07.935Z,12.35
2023-04-06T23:22:34.277Z,12.05
2023-04-06T23:25:00.663Z,13.02
2023-04-06T23:27:27.009Z,13.82
2023-04-06T23:29:54.114Z,12.90
2023-04-06T23:32:20.518Z,12.75
2023-04-06T23:34:46.833Z,14.20
2023-04-06T23:37:13.228Z,14.15
2023-04-06T23:39:39.525Z,13.93
2023-04-06T23:42:05.862Z,13.93
2023-04-06T23:44:32.146Z,13.85
2023-04-06T23:46:58.714Z,14.13
2023-04-06T23:49:25.090Z,14.32
2023-04-06T23:51:51.398Z,14.60
2023-04-06T23:54:17.727Z,15.13
2023-04-06T23:56:44.120Z,14.43
2023-04-06T23:59:10.467Z,16.27
